createdAt,value
2023-01-08T00:00:04.070Z,95247.94
2023-01-08T00:02:38.885Z,95254.09
2023-01-08T00:05:05.565Z,95250.00
2023-01-08T00:07:31.945Z,95242.09
2023-01-08T00:09:58.332Z,95243.78
2023-01-08T00:12:24.731Z,95240.09
2023-01-08T00:14:51.174Z,95244.75
2023-01-08T00:17:17.578Z,95244.78
2023-01-08T00:19:44.257Z,95242.69
2023-01-08T00:22:10.646Z,95229.19
2023-01-08T00:24:37.234Z,95233.94
2023-01-08T00:27:03.799Z,95223.94
2023-01-08T00:29:30.365Z,95214.50
2023-01-08T00:31:56.791Z,95210.31
2023-01-08T00:34:23.195Z,95200.28
2023-01-08T00:36:49.816Z,95195.41
2023-01-08T00:39:16.269Z,95186.69
2023-01-08T00:41:45.303Z,95179.25
2023-01-08T00:44:11.702Z,95187.34
2023-01-08T00:46:38.105Z,95183.66
2023-01-08T00:49:04.596Z,95183.81
2023-01-08T00:51:31.041Z,95182.75
2023-01-08T00:53:57.458Z,95170.78
2023-01-08T00:56:23.882Z,95159.34
2023-01-08T00:58:50.409Z,95162.59
2023-01-08T01:01:16.969Z,95165.38
2023-01-08T01:03:43.783Z,95163.81
2023-01-08T01:06:11.372Z,95155.50
2023-01-08T01:08:37.843Z,95156.81
2023-01-08T01:11:08.318Z,95161.19
2023-01-08T01:13:34.793Z,95166.53
2023-01-08T01:16:02.068Z,95163.56
2023-01-08T01:18:28.876Z,95161.66
2023-01-08T01:20:55.426Z,95169.06
2023-01-08T01:23:21.832Z,95164.28
2023-01-08T01:25:48.309Z,95164.34
2023-01-08T01:28:16.149Z,95181.31
2023-01-08T01:30:42.706Z,95170.19
2023-01-08T01:33:09.146Z,95167.72
2023-01-08T01:35:35.553Z,95164.94
2023-01-08T01:38:01.981Z,95173.38
2023-01-08T01:40:28.424Z,95174.50
2023-01-08T01:42:55.037Z,95177.34
2023-01-08T01:45:23.255Z,95177.84
2023-01-08T01:47:55.485Z,95173.00
2023-01-08T01:50:25.451Z,95172.47
2023-01-08T01:52:55.052Z,95177.56
2023-01-08T01:55:21.477Z,95174.66
2023-01-08T01:57:55.037Z,95168.66
2023-01-08T02:00:23.231Z,95161.75
2023-01-08T02:02:50.045Z,95158.94
2023-01-08T02:05:17.319Z,95152.09
2023-01-08T02:08:03.999Z,95154.22
2023-01-08T02:10:30.407Z,95150.66
2023-01-08T02:12:59.379Z,95142.59
2023-01-08T02:15:41.080Z,95140.81
2023-01-08T02:18:07.464Z,95131.06
2023-01-08T02:20:42.976Z,95130.19
2023-01-08T02:23:28.240Z,95125.47
2023-01-08T02:26:00.639Z,95116.63
2023-01-08T02:28:27.806Z,95105.72
2023-01-08T02:30:55.074Z,95093.97
2023-01-08T02:33:23.342Z,95091.56
2023-01-08T02:35:54.709Z,95091.03
2023-01-08T02:38:22.297Z,95088.06
2023-01-08T02:40:58.785Z,95080.16
2023-01-08T02:43:25.193Z,95066.75
2023-01-08T02:45:55.211Z,95073.63
2023-01-08T02:48:42.610Z,95064.19
2023-01-08T02:51:13.957Z,95068.78
2023-01-08T02:53:45.273Z,95071.31
2023-01-08T02:56:14.218Z,95069.41
2023-01-08T02:58:41.560Z,95070.75
2023-01-08T03:01:10.772Z,95071.00
2023-01-08T03:03:38.849Z,95069.19
2023-01-08T03:06:07.748Z,95063.00
2023-01-08T03:08:35.899Z,95061.31
2023-01-08T03:11:07.151Z,95057.97
2023-01-08T03:13:37.649Z,95060.53
2023-01-08T03:16:07.030Z,95059.59
2023-01-08T03:18:36.685Z,95053.41
2023-01-08T03:21:05.329Z,95058.22
2023-01-08T03:23:33.563Z,95044.66
2023-01-08T03:26:01.572Z,95049.28
2023-01-08T03:28:30.730Z,95043.75
2023-01-08T03:30:58.017Z,95047.22
2023-01-08T03:33:25.458Z,95031.72
2023-01-08T03:35:53.815Z,95037.06
2023-01-08T03:38:25.113Z,95040.22
2023-01-08T03:40:57.433Z,95043.47
2023-01-08T03:43:23.924Z,95040.22
2023-01-08T03:45:53.797Z,95037.00
2023-01-08T03:48:21.190Z,95031.84
2023-01-08T03:50:47.994Z,95030.47
2023-01-08T03:53:14.445Z,95030.22
2023-01-08T03:55:40.893Z,95027.22
2023-01-08T03:58:07.599Z,95030.28
2023-01-08T04:00:33.987Z,95033.06
2023-01-08T04:03:00.557Z,95036.94
2023-01-08T04:05:27.000Z,95033.13
2023-01-08T04:07:56.867Z,95034.56
2023-01-08T04:10:24.242Z,95036.13
2023-01-08T04:12:50.657Z,95046.72
2023-01-08T04:15:17.530Z,95043.75
2023-01-08T04:17:44.028Z,95044.22
2023-01-08T04:20:10.692Z,95045.94
2023-01-08T04:22:37.129Z,95050.63
2023-01-08T04:25:03.646Z,95046.59
2023-01-08T04:27:30.017Z,95041.38
2023-01-08T04:29:56.410Z,95041.78
2023-01-08T04:32:22.885Z,95052.31
2023-01-08T04:34:49.302Z,95063.97
2023-01-08T04:37:15.686Z,95066.13
2023-01-08T04:39:42.426Z,95074.06
2023-01-08T04:42:08.848Z,95072.94
2023-01-08T04:44:35.268Z,95071.78
2023-01-08T04:47:01.691Z,95074.44
2023-01-08T04:49:28.130Z,95079.53
2023-01-08T04:51:54.791Z,95076.00
2023-01-08T04:54:21.230Z,95070.75
2023-01-08T04:56:49.989Z,95069.47
2023-01-08T04:59:16.391Z,95075.50
2023-01-08T05:01:42.921Z,95063.97
2023-01-08T05:04:11.478Z,95068.72
2023-01-08T05:06:37.921Z,95063.53
2023-01-08T05:09:04.394Z,95058.03
2023-01-08T05:11:31.051Z,95059.25
2023-01-08T05:13:58.033Z,95056.16
2023-01-08T05:16:24.506Z,95067.44
2023-01-08T05:18:51.038Z,95059.75
2023-01-08T05:21:17.850Z,95060.56
2023-01-08T05:23:45.552Z,95073.03
2023-01-08T05:26:11.995Z,95084.31
2023-01-08T05:28:38.454Z,95072.72
2023-01-08T05:31:05.033Z,95074.63
2023-01-08T05:33:31.587Z,95074.34
2023-01-08T05:35:58.148Z,95060.69
2023-01-08T05:38:24.951Z,95067.88
2023-01-08T05:40:54.138Z,95063.66
2023-01-08T05:43:20.723Z,95062.44
2023-01-08T05:45:47.561Z,95047.38
2023-01-08T05:48:13.994Z,95032.38
2023-01-08T05:50:40.423Z,95033.00
2023-01-08T05:53:07.721Z,95023.34
2023-01-08T05:55:34.281Z,95033.69
2023-01-08T05:58:01.396Z,95038.09
2023-01-08T06:00:27.863Z,95056.59
2023-01-08T06:02:54.569Z,95050.81
2023-01-08T06:05:21.031Z,95055.66
2023-01-08T06:07:47.445Z,95050.06
2023-01-08T06:10:13.940Z,95055.03
2023-01-08T06:12:40.350Z,95051.88
2023-01-08T06:15:07.153Z,95060.75
2023-01-08T06:17:34.613Z,95069.53
2023-01-08T06:20:00.999Z,95065.94
2023-01-08T06:22:27.569Z,95061.41
2023-01-08T06:24:54.032Z,95057.22
2023-01-08T06:27:20.450Z,95056.53
2023-01-08T06:29:46.886Z,95040.34
2023-01-08T06:32:13.414Z,95051.50
2023-01-08T06:34:39.836Z,95042.03
2023-01-08T06:37:06.225Z,95039.41
2023-01-08T06:39:32.857Z,95033.69
2023-01-08T06:41:59.278Z,95037.81
2023-01-08T06:44:25.681Z,95037.63
2023-01-08T06:46:52.388Z,95038.47
2023-01-08T06:49:19.803Z,95031.91
2023-01-08T06:51:46.454Z,95031.91
2023-01-08T06:54:13.742Z,95032.78
2023-01-08T06:56:53.072Z,95033.69
2023-01-08T06:59:20.081Z,95024.97
2023-01-08T07:01:46.632Z,95030.00
2023-01-08T07:04:13.152Z,95030.97
2023-01-08T07:06:39.573Z,95031.78
2023-01-08T07:09:06.045Z,95027.34
2023-01-08T07:11:33.458Z,95032.53
2023-01-08T07:13:59.866Z,95032.22
2023-01-08T07:16:26.377Z,95030.66
2023-01-08T07:18:52.851Z,95037.00
2023-01-08T07:21:20.972Z,95031.19
2023-01-08T07:23:48.579Z,95035.72
2023-01-08T07:26:15.044Z,95031.19
2023-01-08T07:28:42.083Z,95022.47
2023-01-08T07:31:08.597Z,95026.72
2023-01-08T07:33:35.700Z,95025.88
2023-01-08T07:36:02.581Z,95033.22
2023-01-08T07:38:29.035Z,95033.19
2023-01-08T07:40:57.070Z,95042.84
2023-01-08T07:43:23.495Z,95039.56
2023-01-08T07:45:49.900Z,95042.75
2023-01-08T07:48:16.517Z,95039.97
2023-01-08T07:50:43.961Z,95042.81
2023-01-08T07:53:11.150Z,95037.50
2023-01-08T07:55:37.723Z,95039.63
2023-01-08T07:58:18.633Z,95035.28
2023-01-08T08:00:45.046Z,95033.72
2023-01-08T08:03:11.697Z,95021.19
2023-01-08T08:05:38.476Z,95016.97
2023-01-08T08:08:11.836Z,95021.59
2023-01-08T08:10:38.635Z,95025.31
2023-01-08T08:13:05.126Z,95028.06
2023-01-08T08:15:32.297Z,95025.63
2023-01-08T08:17:58.702Z,95020.41
2023-01-08T08:20:25.305Z,95031.53
2023-01-08T08:22:52.224Z,95030.63
2023-01-08T08:25:18.930Z,95036.72
2023-01-08T08:27:45.771Z,95015.69
2023-01-08T08:30:12.566Z,95012.25
2023-01-08T08:32:39.067Z,95012.25
2023-01-08T08:35:05.751Z,95004.22
2023-01-08T08:37:32.383Z,95010.00
2023-01-08T08:39:58.823Z,94998.09
2023-01-08T08:42:25.280Z,95009.09
2023-01-08T08:44:52.083Z,95001.44
2023-01-08T08:47:18.714Z,95001.00
2023-01-08T08:49:45.112Z,95002.75
2023-01-08T08:52:11.551Z,94999.25
2023-01-08T08:54:41.415Z,94991.56
2023-01-08T08:57:11.236Z,94987.28
2023-01-08T08:59:37.671Z,94994.22
2023-01-08T09:02:04.705Z,94988.53
2023-01-08T09:04:32.109Z,94985.97
2023-01-08T09:06:58.912Z,94976.81
2023-01-08T09:09:25.934Z,94981.53
2023-01-08T09:11:53.024Z,94981.38
2023-01-08T09:14:20.003Z,94975.69
2023-01-08T09:16:46.544Z,94983.22
2023-01-08T09:19:13.050Z,94978.59
2023-01-08T09:21:39.490Z,94968.03
2023-01-08T09:24:06.484Z,94980.91
2023-01-08T09:26:32.955Z,94976.91
2023-01-08T09:28:59.455Z,94990.97
2023-01-08T09:31:26.521Z,94998.06
2023-01-08T09:33:52.962Z,94996.25
2023-01-08T09:36:19.457Z,94985.81
2023-01-08T09:38:45.877Z,94989.00
2023-01-08T09:41:25.181Z,94987.47
2023-01-08T09:43:52.984Z,94997.88
2023-01-08T09:46:20.546Z,94990.13
2023-01-08T09:48:48.027Z,95000.00
2023-01-08T09:51:15.666Z,95003.50
2023-01-08T09:53:43.778Z,95000.91
2023-01-08T09:56:14.796Z,94991.19
2023-01-08T09:58:41.204Z,94999.34
2023-01-08T10:01:10.747Z,94990.44
2023-01-08T10:03:43.088Z,94996.59
2023-01-08T10:06:13.775Z,94997.50
2023-01-08T10:08:40.699Z,94999.34
2023-01-08T10:11:08.085Z,94993.72
2023-01-08T10:13:37.254Z,94988.44
2023-01-08T10:16:07.179Z,94991.25
2023-01-08T10:18:34.912Z,94993.63
2023-01-08T10:21:01.371Z,94993.19
2023-01-08T10:23:27.790Z,94990.59
2023-01-08T10:26:00.033Z,94982.44
2023-01-08T10:28:30.810Z,94991.06
2023-01-08T10:31:05.033Z,94980.00
2023-01-08T10:33:38.006Z,94979.97
2023-01-08T10:36:06.779Z,94968.31
2023-01-08T10:38:34.438Z,94966.84
2023-01-08T10:41:05.611Z,94959.34
2023-01-08T10:43:50.878Z,94963.19
2023-01-08T10:46:21.948Z,94951.13
2023-01-08T10:48:51.905Z,94950.38
2023-01-08T10:51:20.343Z,94942.59
2023-01-08T10:53:47.097Z,94945.63
2023-01-08T10:56:21.982Z,94947.94
2023-01-08T10:58:48.603Z,94941.75
2023-01-08T11:01:22.158Z,94932.63
2023-01-08T11:03:59.342Z,94931.50
2023-01-08T11:06:27.620Z,94924.38
2023-01-08T11:08:59.174Z,94919.72
2023-01-08T11:11:32.163Z,94924.44
2023-01-08T11:13:59.947Z,94919.78
2023-01-08T11:16:39.680Z,94913.91
2023-01-08T11:19:14.873Z,94917.91
2023-01-08T11:21:41.318Z,94916.16
2023-01-08T11:24:40.534Z,94907.72
2023-01-08T11:27:15.375Z,94903.50
2023-01-08T11:29:45.699Z,94891.28
2023-01-08T11:32:24.759Z,94894.34
2023-01-08T11:35:00.937Z,94887.44
2023-01-08T11:37:28.748Z,94878.91
2023-01-08T11:39:56.202Z,94881.59
2023-01-08T11:42:25.673Z,94876.38
2023-01-08T11:44:55.128Z,94877.56
2023-01-08T11:47:27.501Z,94879.16
2023-01-08T11:50:05.393Z,94870.44
2023-01-08T11:52:31.797Z,94863.03
2023-01-08T11:55:01.300Z,94852.91
2023-01-08T11:57:46.564Z,94853.03
2023-01-08T12:00:14.409Z,94855.91
2023-01-08T12:02:57.949Z,94846.94
2023-01-08T12:05:24.503Z,94842.03
2023-01-08T12:08:03.352Z,94840.25
2023-01-08T12:10:33.237Z,94836.72
2023-01-08T12:13:24.987Z,94825.78
2023-01-08T12:15:54.430Z,94818.94
2023-01-08T12:18:32.752Z,94821.25
2023-01-08T12:21:19.114Z,94812.81
2023-01-08T12:23:53.368Z,94814.66
2023-01-08T12:26:24.203Z,94812.81
2023-01-08T12:29:09.520Z,94808.47
2023-01-08T12:31:35.988Z,94816.47
2023-01-08T12:34:22.811Z,94807.28
2023-01-08T12:36:54.377Z,94813.19
2023-01-08T12:39:20.785Z,94809.81
2023-01-08T12:41:49.161Z,94815.16
2023-01-08T12:44:22.529Z,94815.97
2023-01-08T12:46:50.787Z,94810.16
2023-01-08T12:49:20.977Z,94807.56
2023-01-08T12:52:02.795Z,94806.53
2023-01-08T12:54:29.291Z,94800.09
2023-01-08T12:57:14.271Z,94807.38
2023-01-08T12:59:50.022Z,94812.28
2023-01-08T13:02:31.146Z,94814.38
2023-01-08T13:04:57.652Z,94810.59
2023-01-08T13:07:26.873Z,94796.25
2023-01-08T13:09:57.475Z,94793.28
2023-01-08T13:12:28.870Z,94786.38
2023-01-08T13:14:55.556Z,94786.69
2023-01-08T13:17:22.435Z,94782.25
2023-01-08T13:19:56.013Z,94773.72
2023-01-08T13:22:25.939Z,94774.41
2023-01-08T13:24:52.390Z,94769.22
2023-01-08T13:27:18.793Z,94773.25
2023-01-08T13:29:54.326Z,94765.97
2023-01-08T13:32:39.577Z,94763.88
2023-01-08T13:35:15.426Z,94758.44
2023-01-08T13:37:46.687Z,94765.03
2023-01-08T13:40:31.887Z,94756.28
2023-01-08T13:43:01.803Z,94742.31
2023-01-08T13:45:29.260Z,94724.06
2023-01-08T13:47:58.261Z,94725.09
2023-01-08T13:50:26.287Z,94726.91
2023-01-08T13:52:58.873Z,94714.31
2023-01-08T13:55:39.501Z,94717.34
2023-01-08T13:58:09.295Z,94717.03
2023-01-08T14:00:45.301Z,94714.97
2023-01-08T14:03:41.255Z,94713.63
2023-01-08T14:06:16.805Z,94704.66
2023-01-08T14:08:51.247Z,94709.63
2023-01-08T14:11:18.327Z,94708.84
2023-01-08T14:13:44.815Z,94713.34
2023-01-08T14:16:13.199Z,94706.56
2023-01-08T14:18:40.800Z,94693.56
2023-01-08T14:21:07.529Z,94690.59
2023-01-08T14:23:39.194Z,94693.28
2023-01-08T14:26:08.458Z,94693.16
2023-01-08T14:28:35.346Z,94680.66
2023-01-08T14:31:01.871Z,94697.22
2023-01-08T14:33:35.598Z,94699.25
2023-01-08T14:36:03.384Z,94702.34
2023-01-08T14:38:29.811Z,94695.78
2023-01-08T14:41:01.370Z,94690.09
2023-01-08T14:43:28.003Z,94694.91
2023-01-08T14:45:54.748Z,94685.72
2023-01-08T14:48:24.674Z,94694.22
2023-01-08T14:50:59.795Z,94691.19
2023-01-08T14:53:35.272Z,94693.81
2023-01-08T14:56:02.648Z,94689.91
2023-01-08T14:58:34.222Z,94681.50
2023-01-08T15:01:02.962Z,94678.91
2023-01-08T15:03:40.366Z,94667.09
2023-01-08T15:06:07.467Z,94664.22
2023-01-08T15:08:35.785Z,94651.63
2023-01-08T15:11:04.327Z,94655.25
2023-01-08T15:13:32.620Z,94648.66
2023-01-08T15:16:07.164Z,94637.94
2023-01-08T15:18:35.061Z,94634.22
2023-01-08T15:21:01.551Z,94641.00
2023-01-08T15:23:48.644Z,94642.28
2023-01-08T15:26:16.205Z,94639.25
2023-01-08T15:29:06.010Z,94631.25
2023-01-08T15:31:44.330Z,94634.22
2023-01-08T15:34:11.035Z,94637.44
2023-01-08T15:36:37.782Z,94626.63
2023-01-08T15:39:04.608Z,94609.16
2023-01-08T15:41:56.424Z,94598.63
2023-01-08T15:44:23.300Z,94599.81
2023-01-08T15:46:50.905Z,94606.91
2023-01-08T15:49:17.446Z,94602.16
2023-01-08T15:51:46.088Z,94596.50
2023-01-08T15:54:13.055Z,94597.34
2023-01-08T15:56:39.682Z,94598.66
2023-01-08T15:59:06.099Z,94596.31
2023-01-08T16:01:33.349Z,94596.63
2023-01-08T16:04:00.109Z,94595.16
2023-01-08T16:06:26.504Z,94598.59
2023-01-08T16:08:52.970Z,94590.28
2023-01-08T16:11:19.659Z,94584.91
2023-01-08T16:13:46.262Z,94589.72
2023-01-08T16:16:14.206Z,94579.03
2023-01-08T16:18:40.876Z,94576.72
2023-01-08T16:21:08.120Z,94567.00
2023-01-08T16:23:38.090Z,94565.78
2023-01-08T16:26:08.821Z,94565.16
2023-01-08T16:28:35.435Z,94560.63
2023-01-08T16:31:02.319Z,94553.84
2023-01-08T16:33:28.717Z,94552.16
2023-01-08T16:35:56.629Z,94550.00
2023-01-08T16:38:25.009Z,94545.66
2023-01-08T16:40:56.611Z,94539.47
2023-01-08T16:43:27.350Z,94546.34
2023-01-08T16:45:55.102Z,94523.19
2023-01-08T16:48:22.207Z,94531.03
2023-01-08T16:50:49.396Z,94529.75
2023-01-08T16:53:17.406Z,94524.13
2023-01-08T16:55:43.833Z,94525.06
2023-01-08T16:58:10.303Z,94519.59
2023-01-08T17:00:37.511Z,94506.41
2023-01-08T17:03:04.654Z,94516.22
2023-01-08T17:05:31.295Z,94507.56
2023-01-08T17:07:58.008Z,94509.81
2023-01-08T17:10:26.222Z,94512.19
2023-01-08T17:12:52.653Z,94515.81
2023-01-08T17:15:19.057Z,94507.78
2023-01-08T17:17:45.442Z,94515.03
2023-01-08T17:20:12.080Z,94515.41
2023-01-08T17:22:38.785Z,94506.09
2023-01-08T17:25:05.391Z,94513.94
2023-01-08T17:27:34.407Z,94501.88
2023-01-08T17:30:00.821Z,94497.03
2023-01-08T17:32:29.414Z,94499.38
2023-01-08T17:34:56.048Z,94502.75
2023-01-08T17:37:22.464Z,94497.66
2023-01-08T17:39:48.857Z,94494.63
2023-01-08T17:42:24.406Z,94487.34
2023-01-08T17:44:55.496Z,94483.28
2023-01-08T17:47:22.128Z,94480.00
2023-01-08T17:49:49.725Z,94479.31
2023-01-08T17:52:16.143Z,94477.53
2023-01-08T17:54:42.594Z,94469.91
2023-01-08T17:57:09.039Z,94468.22
2023-01-08T17:59:35.453Z,94468.81
2023-01-08T18:02:02.020Z,94459.78
2023-01-08T18:04:28.478Z,94465.88
2023-01-08T18:06:54.902Z,94458.66
2023-01-08T18:09:21.371Z,94455.22
2023-01-08T18:11:47.812Z,94443.00
2023-01-08T18:14:14.476Z,94434.75
2023-01-08T18:16:45.387Z,94425.03
2023-01-08T18:19:12.560Z,94419.38
2023-01-08T18:21:38.987Z,94422.78
2023-01-08T18:24:07.035Z,94428.19
2023-01-08T18:26:33.991Z,94428.63
2023-01-08T18:29:00.431Z,94431.31
2023-01-08T18:31:26.967Z,94428.75
2023-01-08T18:33:53.463Z,94436.09
2023-01-08T18:36:20.374Z,94435.06
2023-01-08T18:38:47.103Z,94422.31
2023-01-08T18:41:34.724Z,94429.69
2023-01-08T18:44:01.549Z,94427.59
2023-01-08T18:46:28.141Z,94424.44
2023-01-08T18:48:54.664Z,94415.72
2023-01-08T18:51:21.656Z,94416.31
2023-01-08T18:53:48.329Z,94415.44
2023-01-08T18:56:17.216Z,94403.16
2023-01-08T18:58:43.600Z,94402.94
2023-01-08T19:01:10.331Z,94388.97
2023-01-08T19:03:36.938Z,94377.63
2023-01-08T19:06:03.394Z,94385.91
2023-01-08T19:08:29.843Z,94375.72
2023-01-08T19:10:56.299Z,94364.69
2023-01-08T19:13:22.750Z,94373.56
2023-01-08T19:15:49.189Z,94370.66
2023-01-08T19:18:15.623Z,94368.09
2023-01-08T19:20:43.378Z,94366.59
2023-01-08T19:23:10.009Z,94363.91
2023-01-08T19:25:38.275Z,94357.38
2023-01-08T19:28:04.815Z,94356.47
2023-01-08T19:30:31.524Z,94342.41
2023-01-08T19:32:58.015Z,94344.75
2023-01-08T19:35:24.454Z,94347.84
2023-01-08T19:37:50.944Z,94336.47
2023-01-08T19:40:17.627Z,94336.22
2023-01-08T19:43:02.719Z,94335.63
2023-01-08T19:45:29.176Z,94329.06
2023-01-08T19:47:56.223Z,94329.59
2023-01-08T19:50:23.354Z,94327.69
2023-01-08T19:52:51.335Z,94333.09
2023-01-08T19:55:21.969Z,94334.16
2023-01-08T19:57:51.482Z,94333.88
2023-01-08T20:00:18.156Z,94334.94
2023-01-08T20:02:44.706Z,94326.00
2023-01-08T20:05:11.230Z,94331.56
2023-01-08T20:07:37.683Z,94324.47
2023-01-08T20:10:05.016Z,94332.19
2023-01-08T20:12:31.499Z,94319.22
2023-01-08T20:14:58.007Z,94315.81
2023-01-08T20:17:25.273Z,94314.63
2023-01-08T20:19:52.144Z,94303.75
2023-01-08T20:22:18.714Z,94297.19
2023-01-08T20:24:45.295Z,94290.28
2023-01-08T20:27:11.937Z,94296.47
2023-01-08T20:29:38.922Z,94283.09
2023-01-08T20:32:06.042Z,94280.88
2023-01-08T20:34:32.767Z,94273.69
2023-01-08T20:36:59.711Z,94276.91
2023-01-08T20:39:26.394Z,94262.66
2023-01-08T20:42:01.042Z,94259.41
2023-01-08T20:44:30.376Z,94260.31
2023-01-08T20:46:56.834Z,94264.63
2023-01-08T20:49:25.205Z,94262.28
2023-01-08T20:51:58.443Z,94252.19
2023-01-08T20:54:25.415Z,94253.41
2023-01-08T20:56:54.358Z,94257.31
2023-01-08T20:59:20.787Z,94250.56
2023-01-08T21:01:47.218Z,94251.91
2023-01-08T21:04:14.064Z,94250.84
2023-01-08T21:06:40.514Z,94248.06
2023-01-08T21:09:08.057Z,94242.38
2023-01-08T21:11:35.675Z,94229.44
2023-01-08T21:14:02.405Z,94222.06
2023-01-08T21:16:29.961Z,94226.94
2023-01-08T21:18:57.029Z,94222.34
2023-01-08T21:21:26.122Z,94221.22
2023-01-08T21:23:52.592Z,94220.66
2023-01-08T21:26:19.021Z,94218.75
2023-01-08T21:28:46.023Z,94214.69
2023-01-08T21:31:14.400Z,94210.41
2023-01-08T21:33:41.040Z,94219.59
2023-01-08T21:36:09.058Z,94218.44
2023-01-08T21:38:36.318Z,94215.22
2023-01-08T21:41:04.239Z,94215.84
2023-01-08T21:43:49.427Z,94215.06
2023-01-08T21:46:16.468Z,94204.56
2023-01-08T21:48:43.307Z,94212.78
2023-01-08T21:51:29.730Z,94211.19
2023-01-08T21:53:56.169Z,94196.47
2023-01-08T21:56:22.599Z,94182.63
2023-01-08T21:58:49.001Z,94190.09
2023-01-08T22:01:15.648Z,94188.50
2023-01-08T22:03:42.257Z,94186.81
2023-01-08T22:06:11.053Z,94190.63
2023-01-08T22:08:37.635Z,94186.69
2023-01-08T22:11:07.914Z,94186.69
2023-01-08T22:13:35.048Z,94193.34
2023-01-08T22:16:06.035Z,94179.84
2023-01-08T22:18:33.010Z,94176.19
2023-01-08T22:21:00.374Z,94174.13
2023-01-08T22:23:26.774Z,94177.63
2023-01-08T22:25:53.271Z,94175.94
2023-01-08T22:28:19.694Z,94170.91
2023-01-08T22:30:46.111Z,94182.69
2023-01-08T22:33:12.604Z,94171.69
2023-01-08T22:35:39.115Z,94169.50
2023-01-08T22:38:05.827Z,94163.66
2023-01-08T22:40:32.256Z,94166.03
2023-01-08T22:42:58.665Z,94161.59
2023-01-08T22:45:25.270Z,94158.56
2023-01-08T22:47:51.749Z,94160.53
2023-01-08T22:50:18.237Z,94157.81
2023-01-08T22:52:44.668Z,94156.25
2023-01-08T22:55:11.120Z,94158.84
2023-01-08T22:57:37.529Z,94163.91
2023-01-08T23:00:05.734Z,94157.38
2023-01-08T23:02:32.129Z,94152.59
2023-01-08T23:04:58.607Z,94153.38
2023-01-08T23:07:25.025Z,94142.19
2023-01-08T23:09:51.439Z,94143.97
2023-01-08T23:12:17.878Z,94142.63
2023-01-08T23:14:44.335Z,94145.47
2023-01-08T23:17:10.751Z,94150.75
2023-01-08T23:19:37.220Z,94143.44
2023-01-08T23:22:04.129Z,94140.75
2023-01-08T23:24:31.781Z,94137.59
2023-01-08T23:26:58.265Z,94124.94
2023-01-08T23:29:29.386Z,94115.59
2023-01-08T23:31:57.417Z,94107.19
2023-01-08T23:34:24.573Z,94106.91
2023-01-08T23:36:51.705Z,94114.13
2023-01-08T23:39:18.238Z,94105.16
2023-01-08T23:41:44.766Z,94104.09
2023-01-08T23:44:13.197Z,94110.66
2023-01-08T23:46:39.644Z,94102.91
2023-01-08T23:49:09.128Z,94106.53
2023-01-08T23:51:36.186Z,94104.16
2023-01-08T23:54:02.663Z,94100.56
2023-01-08T23:56:29.091Z,94104.94
2023-01-08T23:58:56.522Z,94096.56
